createdAt,value
2018-10-18T00:00:28.055Z,100.00
2018-10-18T00:05:33.768Z,100.00
2018-10-18T00:08:03.823Z,100.00
2018-10-18T00:10:32.849Z,100.00
2018-10-18T00:13:01.909Z,100.00
2018-10-18T00:15:30.948Z,100.00
2018-10-18T00:20:35.677Z,100.00
2018-10-18T00:23:04.740Z,100.00
2018-10-18T00:25:33.801Z,100.00
2018-10-18T00:28:02.869Z,100.00
2018-10-18T00:30:31.945Z,100.00
2018-10-18T00:33:01.004Z,100.00
2018-10-18T00:35:31.074Z,100.00
2018-10-18T00:38:00.134Z,100.00
2018-10-18T00:40:29.156Z,100.00
2018-10-18T00:42:59.159Z,100.00
2018-10-18T00:45:29.120Z,100.00
2018-10-18T00:47:58.208Z,100.00
2018-10-18T00:53:03.970Z,99.72
2018-10-18T00:55:33.015Z,100.00
2018-10-18T01:00:38.738Z,100.00
2018-10-18T01:03:07.810Z,100.00
2018-10-18T01:05:36.867Z,100.00
2018-10-18T01:08:05.921Z,100.00
2018-10-18T01:10:34.940Z,100.00
2018-10-18T01:13:03.993Z,100.00
2018-10-18T01:18:08.831Z,100.00
2018-10-18T01:20:37.825Z,100.00
2018-10-18T01:23:06.865Z,100.00
2018-10-18T01:25:35.912Z,100.00
2018-10-18T01:28:05.916Z,100.00
2018-10-18T01:30:34.979Z,100.00
2018-10-18T01:33:04.073Z,100.00
2018-10-18T01:38:08.953Z,100.00
2018-10-18T01:40:37.959Z,100.00
2018-10-18T01:43:06.991Z,100.00
2018-10-18T01:48:11.965Z,100.00
2018-10-18T01:50:40.933Z,100.00
2018-10-18T01:53:09.991Z,100.00
2018-10-18T01:55:39.055Z,100.00
2018-10-18T01:58:08.101Z,100.00
2018-10-18T02:00:37.183Z,100.00
2018-10-18T02:05:43.980Z,100.00
2018-10-18T02:08:13.226Z,100.00
2018-10-18T02:14:10.090Z,100.00
2018-10-18T02:16:39.129Z,100.00
2018-10-18T02:19:10.224Z,100.00
2018-10-18T02:21:39.208Z,100.00
2018-10-18T02:24:08.274Z,100.00
2018-10-18T02:26:37.308Z,100.00
2018-10-18T02:29:06.357Z,100.00
2018-10-18T02:31:35.404Z,100.00
2018-10-18T02:34:04.454Z,100.00
2018-10-18T02:36:33.509Z,100.00
2018-10-18T02:39:02.556Z,100.00
2018-10-18T02:44:08.334Z,100.00
2018-10-18T02:46:38.351Z,100.00
2018-10-18T02:49:07.412Z,100.00
2018-10-18T02:54:12.156Z,100.00
2018-10-18T02:56:41.206Z,100.00
2018-10-18T02:59:10.260Z,100.00
2018-10-18T03:01:39.304Z,100.00
2018-10-18T03:04:08.344Z,100.00
2018-10-18T03:09:13.233Z,100.00
2018-10-18T03:11:43.256Z,100.00
2018-10-18T03:16:48.978Z,100.00
2018-10-18T03:19:18.962Z,100.00
2018-10-18T03:21:50.155Z,100.00
2018-10-18T03:24:20.122Z,100.00
2018-10-18T03:29:24.926Z,100.00
2018-10-18T03:34:29.681Z,100.00
2018-10-18T03:39:34.429Z,100.00
2018-10-18T03:44:40.145Z,100.00
2018-10-18T03:47:09.196Z,100.00
2018-10-18T03:49:38.246Z,100.00
2018-10-18T03:52:07.288Z,100.00
2018-10-18T03:54:38.276Z,100.00
2018-10-18T03:59:43.208Z,100.00
2018-10-18T04:02:12.117Z,100.00
2018-10-18T04:04:41.204Z,100.00
2018-10-18T04:07:10.251Z,100.00
2018-10-18T04:09:40.246Z,100.00
2018-10-18T04:14:45.041Z,100.00
2018-10-18T04:17:17.988Z,100.00
2018-10-18T04:19:47.029Z,100.00
2018-10-18T04:22:16.077Z,100.00
2018-10-18T04:27:20.884Z,100.00
2018-10-18T04:29:49.921Z,100.00
2018-10-18T04:32:19.022Z,100.00
2018-10-18T04:37:23.973Z,100.00
2018-10-18T04:42:28.687Z,100.00
2018-10-18T04:47:33.482Z,100.00
2018-10-18T04:50:02.484Z,100.00
2018-10-18T04:55:07.367Z,100.00
2018-10-18T04:57:36.329Z,100.00
2018-10-18T05:02:41.679Z,100.00
2018-10-18T05:08:16.854Z,100.00
2018-10-18T05:10:46.860Z,100.00
2018-10-18T05:13:17.038Z,100.00
2018-10-18T05:15:46.029Z,100.00
2018-10-18T05:20:50.767Z,100.00
2018-10-18T05:23:19.830Z,100.00
2018-10-18T05:25:48.872Z,100.00
2018-10-18T05:30:53.679Z,100.00
2018-10-18T05:35:58.395Z,100.00
2018-10-18T05:38:29.476Z,100.00
2018-10-18T05:40:59.481Z,100.00
2018-10-18T05:43:28.533Z,100.00
2018-10-18T05:45:57.585Z,100.00
2018-10-18T05:48:27.630Z,100.00
2018-10-18T05:51:00.510Z,100.00
2018-10-18T05:56:06.309Z,100.00
2018-10-18T05:58:35.365Z,100.00
2018-10-18T06:01:06.425Z,100.00
2018-10-18T06:06:13.119Z,100.00
2018-10-18T06:08:42.188Z,99.95
2018-10-18T06:11:22.637Z,99.37
2018-10-18T06:13:51.684Z,99.71
2018-10-18T06:16:20.724Z,99.07
2018-10-18T06:18:49.773Z,97.13
2018-10-18T06:21:18.816Z,97.51
2018-10-18T06:23:47.862Z,98.25
2018-10-18T06:26:16.905Z,98.10
2018-10-18T06:31:21.654Z,96.19
2018-10-18T06:36:26.382Z,94.47
2018-10-18T06:39:04.273Z,95.32
2018-10-18T06:44:09.033Z,95.45
2018-10-18T06:46:38.405Z,96.41
2018-10-18T06:49:07.545Z,96.82
2018-10-18T06:51:36.501Z,96.40
2018-10-18T06:54:05.603Z,94.50
2018-10-18T06:59:10.621Z,92.20
2018-10-18T07:01:41.644Z,91.76
2018-10-18T07:06:46.382Z,90.91
2018-10-18T07:09:15.741Z,91.13
2018-10-18T07:11:49.178Z,91.95
2018-10-18T07:14:19.165Z,92.20
2018-10-18T07:16:50.607Z,94.25
2018-10-18T07:19:20.429Z,95.00
2018-10-18T07:21:54.438Z,95.96
2018-10-18T07:27:03.116Z,95.57
2018-10-18T07:29:32.382Z,96.42
2018-10-18T07:34:37.193Z,94.91
2018-10-18T07:39:41.952Z,93.27
2018-10-18T07:42:11.026Z,92.64
2018-10-18T07:44:41.010Z,92.84
2018-10-18T07:47:10.076Z,91.62
2018-10-18T07:49:39.124Z,90.51
2018-10-18T07:52:08.192Z,89.82
2018-10-18T07:57:13.015Z,87.45
2018-10-18T07:59:42.065Z,87.59
2018-10-18T08:02:11.268Z,89.16
2018-10-18T08:04:40.353Z,87.40
2018-10-18T08:07:09.487Z,87.13
2018-10-18T08:09:38.791Z,86.90
2018-10-18T08:12:07.846Z,84.49
2018-10-18T08:14:36.889Z,85.02
2018-10-18T08:17:09.153Z,82.79
2018-10-18T08:19:38.211Z,81.24
2018-10-18T08:22:09.193Z,80.14
2018-10-18T08:24:38.248Z,82.85
2018-10-18T08:27:07.310Z,78.85
2018-10-18T08:29:37.067Z,79.46
2018-10-18T08:32:09.939Z,79.72
2018-10-18T08:34:38.978Z,76.21
2018-10-18T08:37:08.181Z,76.80
2018-10-18T08:39:37.189Z,77.36
2018-10-18T08:42:06.256Z,73.11
2018-10-18T08:44:35.508Z,71.39
2018-10-18T08:47:04.386Z,64.88
2018-10-18T08:49:33.440Z,60.77
2018-10-18T08:52:03.497Z,55.42
2018-10-18T08:57:08.302Z,49.00
2018-10-18T08:59:37.513Z,51.91
2018-10-18T09:02:06.588Z,47.59
2018-10-18T09:04:35.625Z,57.76
2018-10-18T09:07:04.804Z,50.73
2018-10-18T09:09:33.821Z,45.11
2018-10-18T09:14:38.645Z,48.71
2018-10-18T09:17:07.701Z,46.57
2018-10-18T09:19:36.765Z,46.57
2018-10-18T09:24:41.622Z,39.68
2018-10-18T09:27:10.679Z,42.01
2018-10-18T09:29:40.699Z,40.11
2018-10-18T09:32:09.749Z,38.35
2018-10-18T09:34:38.800Z,37.80
2018-10-18T09:37:08.033Z,46.43
2018-10-18T09:39:37.072Z,39.12
2018-10-18T09:44:42.003Z,32.48
2018-10-18T09:54:59.864Z,30.84
2018-10-18T09:57:28.878Z,32.33
2018-10-18T09:59:58.842Z,32.12
2018-10-18T10:02:29.009Z,30.86
2018-10-18T10:07:33.949Z,30.02
2018-10-18T10:10:07.134Z,31.86
2018-10-18T10:12:36.162Z,27.40
2018-10-18T10:15:05.235Z,27.39
2018-10-18T10:17:34.370Z,31.05
2018-10-18T10:20:03.345Z,29.37
2018-10-18T10:22:34.323Z,28.77
2018-10-18T10:27:39.242Z,26.83
2018-10-18T10:30:08.360Z,28.00
2018-10-18T10:32:38.302Z,32.00
2018-10-18T10:35:07.386Z,30.19
2018-10-18T10:37:40.379Z,30.57
2018-10-18T10:42:45.387Z,26.33
2018-10-18T10:45:14.539Z,26.83
2018-10-18T10:47:44.476Z,26.28
2018-10-18T10:50:13.564Z,25.62
2018-10-18T10:52:42.602Z,29.29
2018-10-18T10:55:11.665Z,28.54
2018-10-18T10:57:40.722Z,27.98
2018-10-18T11:00:09.835Z,27.53
2018-10-18T11:02:39.046Z,27.80
2018-10-18T11:05:11.437Z,26.56
2018-10-18T11:07:41.491Z,29.44
2018-10-18T11:10:11.485Z,27.15
2018-10-18T11:12:40.551Z,25.82
2018-10-18T11:15:09.753Z,25.31
2018-10-18T11:17:38.782Z,23.95
2018-10-18T11:20:07.881Z,26.56
2018-10-18T11:22:36.944Z,24.17
2018-10-18T11:25:06.009Z,25.58
2018-10-18T11:27:35.079Z,27.00
2018-10-18T11:30:04.201Z,27.71
2018-10-18T11:32:33.213Z,24.93
2018-10-18T11:35:03.194Z,24.82
2018-10-18T11:37:34.241Z,26.61
2018-10-18T11:40:03.291Z,25.29
2018-10-18T11:42:32.459Z,24.07
2018-10-18T11:45:02.462Z,23.72
2018-10-18T11:47:31.525Z,24.70
2018-10-18T11:50:00.635Z,24.94
2018-10-18T11:52:29.634Z,23.68
2018-10-18T11:57:34.574Z,24.13
2018-10-18T12:00:03.768Z,25.23
2018-10-18T12:02:32.817Z,25.47
2018-10-18T12:05:01.932Z,27.17
2018-10-18T12:07:33.978Z,26.60
2018-10-18T12:10:07.084Z,26.00
2018-10-18T12:12:37.045Z,26.79
2018-10-18T12:15:07.115Z,24.56
2018-10-18T12:17:36.255Z,28.28
2018-10-18T12:22:41.124Z,26.41
2018-10-18T12:25:11.199Z,26.74
2018-10-18T12:27:40.260Z,25.93
2018-10-18T12:30:09.328Z,25.08
2018-10-18T12:32:38.377Z,26.06
2018-10-18T12:35:07.558Z,27.37
2018-10-18T12:37:36.498Z,27.37
2018-10-18T12:40:05.598Z,26.05
2018-10-18T12:42:34.629Z,28.42
2018-10-18T12:45:03.861Z,26.00
2018-10-18T12:47:32.909Z,24.60
2018-10-18T12:50:02.062Z,24.97
2018-10-18T12:52:31.995Z,25.57
2018-10-18T12:55:01.053Z,29.37
2018-10-18T12:57:30.117Z,27.44
2018-10-18T12:59:59.221Z,25.21
2018-10-18T13:02:28.300Z,25.64
2018-10-18T13:10:08.847Z,26.64
2018-10-18T13:12:39.244Z,25.67
2018-10-18T13:15:08.106Z,24.74
2018-10-18T13:17:37.161Z,26.73
2018-10-18T13:20:08.193Z,28.10
2018-10-18T13:22:37.223Z,27.10
2018-10-18T13:27:42.226Z,25.71
2018-10-18T13:30:11.513Z,25.24
2018-10-18T13:32:40.442Z,26.78
2018-10-18T13:35:11.465Z,26.99
2018-10-18T13:37:40.541Z,26.20
2018-10-18T13:40:09.593Z,27.06
2018-10-18T13:45:14.370Z,25.23
2018-10-18T13:50:19.244Z,25.85
2018-10-18T13:52:49.333Z,28.25
2018-10-18T13:55:22.443Z,28.28
2018-10-18T13:57:51.496Z,27.71
2018-10-18T14:00:20.692Z,28.61
2018-10-18T14:02:49.668Z,27.58
2018-10-18T14:07:58.267Z,29.52
2018-10-18T14:10:28.281Z,28.57
2018-10-18T14:12:58.357Z,31.55
2018-10-18T14:18:03.264Z,34.90
2018-10-18T14:20:32.327Z,35.87
2018-10-18T14:23:01.437Z,35.05
2018-10-18T14:25:30.463Z,37.19
2018-10-18T14:27:59.532Z,38.96
2018-10-18T14:30:28.684Z,37.54
2018-10-18T14:32:59.629Z,35.96
2018-10-18T14:35:28.698Z,36.72
2018-10-18T14:37:59.687Z,38.49
2018-10-18T14:40:28.786Z,36.69
2018-10-18T14:42:58.801Z,35.85
2018-10-18T14:45:27.859Z,39.75
2018-10-18T14:47:58.888Z,40.83
2018-10-18T14:50:30.119Z,41.33
2018-10-18T14:52:59.121Z,40.86
2018-10-18T14:55:30.129Z,43.23
2018-10-18T14:57:59.188Z,42.62
2018-10-18T15:00:29.264Z,41.51
2018-10-18T15:02:58.335Z,42.97
2018-10-18T15:08:05.243Z,42.83
2018-10-18T15:10:34.266Z,42.39
2018-10-18T15:13:03.323Z,43.54
2018-10-18T15:15:32.519Z,48.63
2018-10-18T15:18:05.751Z,44.39
2018-10-18T15:20:34.995Z,46.11
2018-10-18T15:28:15.608Z,49.06
2018-10-18T15:30:44.669Z,52.82
2018-10-18T15:33:13.781Z,54.62
2018-10-18T15:35:42.794Z,57.39
2018-10-18T15:38:13.905Z,57.68
2018-10-18T15:40:42.875Z,54.03
2018-10-18T15:43:11.928Z,54.10
2018-10-18T15:48:16.802Z,53.76
2018-10-18T15:50:47.793Z,58.06
2018-10-18T15:53:16.885Z,60.64
2018-10-18T15:55:45.913Z,56.54
2018-10-18T15:58:16.962Z,55.81
2018-10-18T16:00:46.037Z,55.87
2018-10-18T16:05:51.801Z,62.00
2018-10-18T16:11:02.617Z,59.50
2018-10-18T16:16:07.386Z,61.86
2018-10-18T16:18:36.444Z,63.82
2018-10-18T16:21:06.549Z,62.56
2018-10-18T16:23:35.620Z,63.56
2018-10-18T16:26:04.768Z,65.42
2018-10-18T16:28:33.749Z,65.32
2018-10-18T16:31:02.805Z,72.61
2018-10-18T16:33:31.932Z,74.23
2018-10-18T16:41:12.773Z,69.35
2018-10-18T16:43:42.581Z,69.96
2018-10-18T16:46:11.688Z,73.57
2018-10-18T16:48:40.672Z,73.93
2018-10-18T16:51:11.722Z,74.21
2018-10-18T16:53:40.764Z,78.95
2018-10-18T16:56:10.770Z,78.99
2018-10-18T16:58:39.786Z,82.90
2018-10-18T17:01:08.831Z,79.89
2018-10-18T17:03:37.887Z,74.60
2018-10-18T17:06:06.983Z,77.20
2018-10-18T17:08:36.941Z,81.41
2018-10-18T17:11:05.998Z,83.75
2018-10-18T17:13:35.052Z,84.14
2018-10-18T17:16:04.180Z,84.48
2018-10-18T17:18:33.159Z,85.18
2018-10-18T17:21:02.281Z,81.16
2018-10-18T17:23:32.280Z,80.51
2018-10-18T17:26:01.409Z,84.92
2018-10-18T17:28:30.401Z,85.86
2018-10-18T17:30:59.479Z,79.80
2018-10-18T17:33:29.489Z,77.08
2018-10-18T17:35:58.594Z,77.25
2018-10-18T17:38:28.589Z,83.97
2018-10-18T17:40:57.658Z,90.20
2018-10-18T17:43:26.715Z,89.66
2018-10-18T17:45:55.844Z,83.43
2018-10-18T17:48:25.823Z,86.98
2018-10-18T17:50:56.781Z,87.31
2018-10-18T17:53:26.789Z,80.81
2018-10-18T17:55:55.843Z,82.23
2018-10-18T17:58:24.896Z,89.71
2018-10-18T18:00:53.944Z,84.17
2018-10-18T18:03:23.001Z,91.91
2018-10-18T18:05:52.103Z,93.28
2018-10-18T18:08:23.023Z,92.53
2018-10-18T18:10:52.069Z,91.62
2018-10-18T18:13:22.049Z,85.28
2018-10-18T18:15:54.642Z,92.85
2018-10-18T18:18:23.680Z,93.92
2018-10-18T18:20:52.732Z,93.88
2018-10-18T18:23:22.840Z,86.73
2018-10-18T18:25:51.882Z,95.08
2018-10-18T18:28:20.935Z,97.08
2018-10-18T18:30:49.997Z,97.92
2018-10-18T18:33:19.057Z,98.39
2018-10-18T18:35:48.118Z,94.47
2018-10-18T18:38:17.168Z,90.23
2018-10-18T18:43:21.921Z,94.14
2018-10-18T18:45:50.986Z,93.53
2018-10-18T18:48:20.026Z,92.32
2018-10-18T18:50:49.140Z,95.54
2018-10-18T18:53:18.204Z,95.72
2018-10-18T18:55:47.190Z,94.07
2018-10-18T18:58:16.243Z,93.39
2018-10-18T19:00:45.305Z,93.03
2018-10-18T19:03:14.400Z,89.21
2018-10-18T19:08:20.149Z,87.61
2018-10-18T19:10:49.223Z,86.96
2018-10-18T19:13:19.387Z,94.00
2018-10-18T19:15:48.393Z,96.88
2018-10-18T19:18:17.473Z,95.84
2018-10-18T19:20:46.507Z,98.52
2018-10-18T19:23:15.560Z,99.33
2018-10-18T19:25:44.705Z,100.00
2018-10-18T19:28:17.850Z,100.00
2018-10-18T19:30:46.941Z,100.00
2018-10-18T19:33:15.982Z,99.47
2018-10-18T19:35:46.990Z,100.00
2018-10-18T19:38:16.220Z,98.72
2018-10-18T19:40:45.232Z,98.70
2018-10-18T19:43:14.288Z,91.67
2018-10-18T19:45:43.398Z,94.59
2018-10-18T19:50:48.087Z,98.79
2018-10-18T19:55:52.853Z,100.00
2018-10-18T19:58:22.829Z,100.00
2018-10-18T20:00:51.905Z,100.00
2018-10-18T20:03:20.964Z,100.00
2018-10-18T20:05:50.006Z,100.00
2018-10-18T20:08:19.141Z,100.00
2018-10-18T20:10:48.115Z,100.00
2018-10-18T20:13:17.179Z,100.00
2018-10-18T20:15:46.240Z,100.00
2018-10-18T20:18:15.370Z,100.00
2018-10-18T20:20:44.321Z,100.00
2018-10-18T20:23:13.401Z,100.00
2018-10-18T20:25:42.616Z,100.00
2018-10-18T20:28:13.905Z,100.00
2018-10-18T20:30:43.869Z,100.00
2018-10-18T20:33:12.983Z,100.00
2018-10-18T20:35:41.983Z,100.00
2018-10-18T20:38:11.006Z,100.00
2018-10-18T20:40:42.020Z,100.00
2018-10-18T20:43:11.057Z,100.00
2018-10-18T20:48:15.791Z,98.98
2018-10-18T20:50:44.848Z,100.00
2018-10-18T20:53:13.955Z,100.00
2018-10-18T20:58:18.677Z,100.00
2018-10-18T21:00:47.725Z,100.00
2018-10-18T21:03:17.929Z,96.12
2018-10-18T21:05:46.971Z,98.47
2018-10-18T21:10:51.718Z,100.00
2018-10-18T21:15:56.477Z,100.00
2018-10-18T21:21:01.226Z,100.00
2018-10-18T21:26:05.964Z,99.64
2018-10-18T21:28:35.026Z,99.43
2018-10-18T21:31:04.133Z,100.00
2018-10-18T21:33:33.176Z,99.52
2018-10-18T21:36:02.237Z,100.00
2018-10-18T21:38:32.355Z,100.00
2018-10-18T21:41:01.452Z,98.41
2018-10-18T21:43:30.435Z,100.00
2018-10-18T21:46:00.228Z,98.54
2018-10-18T21:48:29.282Z,100.00
2018-10-18T21:50:59.326Z,100.00
2018-10-18T21:53:28.319Z,100.00
2018-10-18T21:55:57.364Z,100.00
2018-10-18T21:58:26.445Z,100.00
2018-10-18T22:00:55.941Z,96.45
2018-10-18T22:03:26.028Z,98.19
2018-10-18T22:05:55.094Z,98.15
2018-10-18T22:08:24.154Z,100.00
2018-10-18T22:13:28.884Z,99.57
2018-10-18T22:15:57.951Z,100.00
2018-10-18T22:18:26.998Z,100.00
2018-10-18T22:20:56.101Z,100.00
2018-10-18T22:23:25.137Z,100.00
2018-10-18T22:28:29.937Z,100.00
2018-10-18T22:30:58.992Z,100.00
2018-10-18T22:33:28.048Z,100.00
2018-10-18T22:35:58.113Z,100.00
2018-10-18T22:38:27.229Z,98.10
2018-10-18T22:40:56.288Z,99.95
2018-10-18T22:43:25.314Z,99.67
2018-10-18T22:45:54.361Z,99.86
2018-10-18T22:50:59.116Z,98.84
2018-10-18T22:53:28.153Z,98.70
2018-10-18T22:55:57.201Z,100.00
2018-10-18T22:58:26.247Z,100.00
2018-10-18T23:00:55.345Z,100.00
2018-10-18T23:03:24.369Z,100.00
2018-10-18T23:05:53.422Z,100.00
2018-10-18T23:08:22.465Z,100.00
2018-10-18T23:10:51.509Z,100.00
2018-10-18T23:13:20.561Z,100.00
2018-10-18T23:15:49.597Z,100.00
2018-10-18T23:18:18.653Z,100.00
2018-10-18T23:20:47.713Z,100.00
2018-10-18T23:23:16.829Z,100.00
2018-10-18T23:25:45.829Z,100.00
2018-10-18T23:28:14.857Z,100.00
2018-10-18T23:30:44.854Z,100.00
2018-10-18T23:33:14.913Z,100.00
2018-10-18T23:38:19.675Z,100.00
2018-10-18T23:40:48.723Z,100.00
2018-10-18T23:43:19.878Z,100.00
2018-10-18T23:45:48.958Z,100.00
2018-10-18T23:48:18.018Z,100.00
2018-10-18T23:50:47.064Z,100.00
2018-10-18T23:53:16.117Z,100.00
2018-10-18T23:55:45.169Z,100.00
2018-10-18T23:58:14.215Z,100.00
